sensor_id;sensor_type;location;lat;lon;timestamp;pressure;altitude;pressure_sealevel;temperature;humidity
9261;BME280;4667;42.726;23.252;2023-02-10T07:25:11;97024.31;;;-3.15;nan
9261;BME280;4667;42.726;23.252;2023-02-10T07:27:41;97014.69;;;-2.84;nan
9261;BME280;4667;42.726;23.252;2023-02-10T07:30:11;97018.53;;;-2.60;nan
9261;BME280;4667;42.726;23.252;2023-02-10T07:32:41;97014.34;;;-2.51;nan
9261;BME280;4667;42.726;23.252;2023-02-10T07:35:37;97019.69;;;-2.30;nan
9261;BME280;4667;42.726;23.252;2023-02-10T07:38:07;97027.19;;;-2.17;nan
9261;BME280;4667;42.726;23.252;2023-02-10T07:40:35;97017.94;;;-1.89;nan
9261;BME280;4667;42.726;23.252;2023-02-10T07:43:02;97025.13;;;-1.54;nan
9261;BME280;4667;42.726;23.252;2023-02-10T07:45:29;97014.75;;;-1.10;nan
9261;BME280;4667;42.726;23.252;2023-02-10T07:47:57;97006.72;;;-0.80;nan
9261;BME280;4667;42.726;23.252;2023-02-10T07:50:24;96999.50;;;-0.69;nan
9261;BME280;4667;42.726;23.252;2023-02-10T07:52:51;97003.59;;;-0.28;nan
9261;BME280;4667;42.726;23.252;2023-02-10T07:55:18;97001.41;;;-0.16;nan
9261;BME280;4667;42.726;23.252;2023-02-10T07:57:46;97014.47;;;-0.19;nan
9261;BME280;4667;42.726;23.252;2023-02-10T08:00:14;97013.22;;;-0.32;nan
9261;BME280;4667;42.726;23.252;2023-02-10T08:02:41;97011.53;;;-0.18;nan
9261;BME280;4667;42.726;23.252;2023-02-10T08:05:08;97010.41;;;-0.02;nan
9261;BME280;4667;42.726;23.252;2023-02-10T08:07:35;97014.81;;;-0.41;nan
9261;BME280;4667;42.726;23.252;2023-02-10T08:10:04;97011.22;;;-0.11;nan
9261;BME280;4667;42.726;23.252;2023-02-10T08:12:31;97001.16;;;-0.19;nan
9261;BME280;4667;42.726;23.252;2023-02-10T08:15:00;97009.19;;;0.20;nan
9261;BME280;4667;42.726;23.252;2023-02-10T08:17:28;97003.25;;;-0.11;nan
9261;BME280;4667;42.726;23.252;2023-02-10T08:19:56;97002.63;;;0.46;nan
9261;BME280;4667;42.726;23.252;2023-02-10T08:22:23;97008.94;;;0.55;nan
9261;BME280;4667;42.726;23.252;2023-02-10T08:24:50;97004.44;;;0.51;nan
9261;BME280;4667;42.726;23.252;2023-02-10T08:27:19;96994.75;;;0.60;nan
9261;BME280;4667;42.726;23.252;2023-02-10T08:29:46;97002.66;;;-0.03;nan
9261;BME280;4667;42.726;23.252;2023-02-10T08:32:15;97001.22;;;0.15;nan
9261;BME280;4667;42.726;23.252;2023-02-10T08:34:44;96996.00;;;0.38;nan
9261;BME280;4667;42.726;23.252;2023-02-10T08:37:15;96994.25;;;1.15;nan
9261;BME280;4667;42.726;23.252;2023-02-10T08:39:42;96993.63;;;1.71;nan
9261;BME280;4667;42.726;23.252;2023-02-10T08:42:09;96995.34;;;1.81;nan
9261;BME280;4667;42.726;23.252;2023-02-10T08:44:38;96993.56;;;1.95;nan
9261;BME280;4667;42.726;23.252;2023-02-10T08:47:05;96996.34;;;1.85;nan
9261;BME280;4667;42.726;23.252;2023-02-10T08:49:37;96995.28;;;2.42;nan
9261;BME280;4667;42.726;23.252;2023-02-10T08:52:04;96997.38;;;2.45;nan
9261;BME280;4667;42.726;23.252;2023-02-10T08:54:31;96993.84;;;2.82;nan
9261;BME280;4667;42.726;23.252;2023-02-10T08:56:59;96993.38;;;2.61;nan
9261;BME280;4667;42.726;23.252;2023-02-10T08:59:26;96993.88;;;2.96;nan
9261;BME280;4667;42.726;23.252;2023-02-10T09:01:53;96977.94;;;3.18;nan
9261;BME280;4667;42.726;23.252;2023-02-10T09:04:20;96980.44;;;3.14;nan
9261;BME280;4667;42.726;23.252;2023-02-10T09:06:49;96983.22;;;3.37;nan
9261;BME280;4667;42.726;23.252;2023-02-10T09:09:20;96976.81;;;2.92;nan
9261;BME280;4667;42.726;23.252;2023-02-10T09:11:50;96973.00;;;3.25;nan
9261;BME280;4667;42.726;23.252;2023-02-10T09:14:17;96968.81;;;2.92;nan
9261;BME280;4667;42.726;23.252;2023-02-10T09:16:44;96976.03;;;2.59;nan
9261;BME280;4667;42.726;23.252;2023-02-10T09:19:10;96977.53;;;2.32;nan
9261;BME280;4667;42.726;23.252;2023-02-10T09:21:37;96964.91;;;2.84;nan
9261;BME280;4667;42.726;23.252;2023-02-10T09:24:06;96972.59;;;3.18;nan
9261;BME280;4667;42.726;23.252;2023-02-10T09:26:34;96962.56;;;3.23;nan
9261;BME280;4667;42.726;23.252;2023-02-10T09:29:01;96972.00;;;3.07;nan
9261;BME280;4667;42.726;23.252;2023-02-10T09:31:28;96955.56;;;3.27;nan
9261;BME280;4667;42.726;23.252;2023-02-10T09:33:55;96956.44;;;3.37;nan
9261;BME280;4667;42.726;23.252;2023-02-10T09:36:22;96956.41;;;3.23;nan
9261;BME280;4667;42.726;23.252;2023-02-10T09:38:49;96950.66;;;3.02;nan
9261;BME280;4667;42.726;23.252;2023-02-10T09:41:31;96942.81;;;3.60;nan
9261;BME280;4667;42.726;23.252;2023-02-10T09:44:10;96952.09;;;4.04;nan
9261;BME280;4667;42.726;23.252;2023-02-10T09:46:47;96940.44;;;4.53;nan
9261;BME280;4667;42.726;23.252;2023-02-10T09:49:49;96932.84;;;5.39;nan
9261;BME280;4667;42.726;23.252;2023-02-10T09:52:27;96926.13;;;5.67;nan
9261;BME280;4667;42.726;23.252;2023-02-10T09:54:56;96929.06;;;5.49;nan
9261;BME280;4667;42.726;23.252;2023-02-10T09:57:29;96930.38;;;5.68;nan
9261;BME280;4667;42.726;23.252;2023-02-10T10:00:00;96919.25;;;6.18;nan
9261;BME280;4667;42.726;23.252;2023-02-10T10:02:32;96916.84;;;6.60;nan
9261;BME280;4667;42.726;23.252;2023-02-10T10:05:09;96910.19;;;7.21;nan
9261;BME280;4667;42.726;23.252;2023-02-10T10:07:45;96910.00;;;7.26;nan
9261;BME280;4667;42.726;23.252;2023-02-10T10:10:20;96895.25;;;7.53;nan
9261;BME280;4667;42.726;23.252;2023-02-10T10:16:29;96901.44;;;7.53;nan
9261;BME280;4667;42.726;23.252;2023-02-10T10:19:08;96897.28;;;8.27;nan
9261;BME280;4667;42.726;23.252;2023-02-10T10:21:45;96885.09;;;8.41;nan
9261;BME280;4667;42.726;23.252;2023-02-10T10:24:34;96886.19;;;8.61;nan
9261;BME280;4667;42.726;23.252;2023-02-10T10:27:16;96878.16;;;8.52;nan
9261;BME280;4667;42.726;23.252;2023-02-10T10:29:52;96870.41;;;9.69;nan
9261;BME280;4667;42.726;23.252;2023-02-10T10:32:35;96862.81;;;9.87;nan
9261;BME280;4667;42.726;23.252;2023-02-10T10:35:14;96866.22;;;9.59;nan
9261;BME280;4667;42.726;23.252;2023-02-10T10:37:41;96859.94;;;9.43;nan
9261;BME280;4667;42.726;23.252;2023-02-10T10:40:15;96858.25;;;10.03;nan
9261;BME280;4667;42.726;23.252;2023-02-10T10:42:45;96856.09;;;10.08;nan
9261;BME280;4667;42.726;23.252;2023-02-10T10:45:17;96853.53;;;9.23;nan
9261;BME280;4667;42.726;23.252;2023-02-10T10:47:50;96851.59;;;9.12;nan
9261;BME280;4667;42.726;23.252;2023-02-10T10:50:21;96847.84;;;8.80;nan
9261;BME280;4667;42.726;23.252;2023-02-10T10:52:53;96845.16;;;7.93;nan
9261;BME280;4667;42.726;23.252;2023-02-10T10:55:24;96840.41;;;8.11;nan
9261;BME280;4667;42.726;23.252;2023-02-10T10:57:55;96831.63;;;8.68;nan
9261;BME280;4667;42.726;23.252;2023-02-10T11:00:25;96833.13;;;9.14;nan
9261;BME280;4667;42.726;23.252;2023-02-10T11:02:58;96831.31;;;10.06;nan
9261;BME280;4667;42.726;23.252;2023-02-10T11:05:28;96836.28;;;10.32;nan
9261;BME280;4667;42.726;23.252;2023-02-10T11:07:56;96830.69;;;10.53;nan
9261;BME280;4667;42.726;23.252;2023-02-10T11:10:27;96821.50;;;10.73;nan
9261;BME280;4667;42.726;23.252;2023-02-10T11:12:55;96821.59;;;10.61;nan
9261;BME280;4667;42.726;23.252;2023-02-10T11:15:38;96822.84;;;11.11;nan
9261;BME280;4667;42.726;23.252;2023-02-10T11:18:15;96817.84;;;10.22;nan
9261;BME280;4667;42.726;23.252;2023-02-10T11:20:53;96812.72;;;10.33;nan
9261;BME280;4667;42.726;23.252;2023-02-10T11:23:20;96814.22;;;10.30;nan
9261;BME280;4667;42.726;23.252;2023-02-10T11:25:56;96804.91;;;10.75;nan
9261;BME280;4667;42.726;23.252;2023-02-10T11:28:25;96807.34;;;10.64;nan
9261;BME280;4667;42.726;23.252;2023-02-10T11:30:55;96814.00;;;10.98;nan
9261;BME280;4667;42.726;23.252;2023-02-10T11:33:28;96808.34;;;10.16;nan
9261;BME280;4667;42.726;23.252;2023-02-10T11:35:59;96802.19;;;10.59;nan
9261;BME280;4667;42.726;23.252;2023-02-10T11:38:26;96807.03;;;10.10;nan
9261;BME280;4667;42.726;23.252;2023-02-10T11:40:55;96805.53;;;10.25;nan
9261;BME280;4667;42.726;23.252;2023-02-10T11:43:27;96793.34;;;10.62;nan
9261;BME280;4667;42.726;23.252;2023-02-10T11:45:58;96788.91;;;10.85;nan
9261;BME280;4667;42.726;23.252;2023-02-10T11:48:28;96782.56;;;11.63;nan
9261;BME280;4667;42.726;23.252;2023-02-10T11:51:05;96781.00;;;11.78;nan
9261;BME280;4667;42.726;23.252;2023-02-10T11:53:36;96784.25;;;11.17;nan
9261;BME280;4667;42.726;23.252;2023-02-10T11:56:07;96787.59;;;11.61;nan
9261;BME280;4667;42.726;23.252;2023-02-10T11:58:47;96783.03;;;11.30;nan
9261;BME280;4667;42.726;23.252;2023-02-10T12:01:33;96779.09;;;10.96;nan
9261;BME280;4667;42.726;23.252;2023-02-10T12:04:15;96776.75;;;10.95;nan
9261;BME280;4667;42.726;23.252;2023-02-10T12:06:54;96767.69;;;11.38;nan
9261;BME280;4667;42.726;23.252;2023-02-10T12:09:27;96763.69;;;11.86;nan
9261;BME280;4667;42.726;23.252;2023-02-10T12:12:00;96762.91;;;12.05;nan
9261;BME280;4667;42.726;23.252;2023-02-10T12:14:41;96757.19;;;12.10;nan
9261;BME280;4667;42.726;23.252;2023-02-10T12:17:22;96752.88;;;11.70;nan
9261;BME280;4667;42.726;23.252;2023-02-10T12:20:02;96745.00;;;11.11;nan
9261;BME280;4667;42.726;23.252;2023-02-10T12:22:44;96744.16;;;11.26;nan
9261;BME280;4667;42.726;23.252;2023-02-10T12:25:19;96739.41;;;10.73;nan
9261;BME280;4667;42.726;23.252;2023-02-10T12:27:57;96739.13;;;11.44;nan
9261;BME280;4667;42.726;23.252;2023-02-10T12:30:35;96728.94;;;11.22;nan
9261;BME280;4667;42.726;23.252;2023-02-10T12:33:19;96733.19;;;11.38;nan
9261;BME280;4667;42.726;23.252;2023-02-10T12:36:00;96736.94;;;11.50;nan
9261;BME280;4667;42.726;23.252;2023-02-10T12:38:43;96739.25;;;12.05;nan
9261;BME280;4667;42.726;23.252;2023-02-10T12:41:17;96730.56;;;11.07;nan
9261;BME280;4667;42.726;23.252;2023-02-10T12:44:00;96728.88;;;12.11;nan
9261;BME280;4667;42.726;23.252;2023-02-10T12:46:36;96721.03;;;12.28;nan
9261;BME280;4667;42.726;23.252;2023-02-10T12:49:21;96721.91;;;11.91;nan
9261;BME280;4667;42.726;23.252;2023-02-10T12:52:02;96720.78;;;11.37;nan
9261;BME280;4667;42.726;23.252;2023-02-10T12:54:37;96717.28;;;11.37;nan
9261;BME280;4667;42.726;23.252;2023-02-10T12:57:09;96716.59;;;10.74;nan
9261;BME280;4667;42.726;23.252;2023-02-10T12:59:45;96724.31;;;10.72;nan
9261;BME280;4667;42.726;23.252;2023-02-10T13:02:16;96716.16;;;11.57;nan
9261;BME280;4667;42.726;23.252;2023-02-10T13:04:48;96718.38;;;12.09;nan
9261;BME280;4667;42.726;23.252;2023-02-10T13:07:25;96717.69;;;12.35;nan
9261;BME280;4667;42.726;23.252;2023-02-10T13:10:00;96719.94;;;12.10;nan
9261;BME280;4667;42.726;23.252;2023-02-10T13:12:31;96721.66;;;11.61;nan
9261;BME280;4667;42.726;23.252;2023-02-10T13:15:04;96716.00;;;11.31;nan
9261;BME280;4667;42.726;23.252;2023-02-10T13:17:38;96728.69;;;10.60;nan
9261;BME280;4667;42.726;23.252;2023-02-10T13:20:19;96721.03;;;11.32;nan
9261;BME280;4667;42.726;23.252;2023-02-10T13:22:54;96715.66;;;12.09;nan
9261;BME280;4667;42.726;23.252;2023-02-10T13:25:27;96719.84;;;12.72;nan
9261;BME280;4667;42.726;23.252;2023-02-10T13:28:04;96715.78;;;13.11;nan
9261;BME280;4667;42.726;23.252;2023-02-10T13:30:54;96721.19;;;12.58;nan
9261;BME280;4667;42.726;23.252;2023-02-10T13:33:35;96723.44;;;12.11;nan
9261;BME280;4667;42.726;23.252;2023-02-10T13:36:10;96723.97;;;11.24;nan
9261;BME280;4667;42.726;23.252;2023-02-10T13:38:41;96717.06;;;11.11;nan
9261;BME280;4667;42.726;23.252;2023-02-10T13:41:23;96718.72;;;11.15;nan
9261;BME280;4667;42.726;23.252;2023-02-10T13:44:23;96721.28;;;11.43;nan
9261;BME280;4667;42.726;23.252;2023-02-10T13:46:54;96718.25;;;10.94;nan
9261;BME280;4667;42.726;23.252;2023-02-10T13:49:23;96721.78;;;11.68;nan
9261;BME280;4667;42.726;23.252;2023-02-10T13:51:50;96709.22;;;11.60;nan
9261;BME280;4667;42.726;23.252;2023-02-10T13:54:28;96708.53;;;11.82;nan
9261;BME280;4667;42.726;23.252;2023-02-10T13:56:57;96711.88;;;11.95;nan
9261;BME280;4667;42.726;23.252;2023-02-10T13:59:28;96711.09;;;12.36;nan
9261;BME280;4667;42.726;23.252;2023-02-10T14:02:17;96717.81;;;12.00;nan
9261;BME280;4667;42.726;23.252;2023-02-10T14:04:55;96716.25;;;11.80;nan
9261;BME280;4667;42.726;23.252;2023-02-10T14:07:34;96718.75;;;11.89;nan
9261;BME280;4667;42.726;23.252;2023-02-10T14:10:29;96715.16;;;11.11;nan
9261;BME280;4667;42.726;23.252;2023-02-10T14:12:58;96710.97;;;11.14;nan
9261;BME280;4667;42.726;23.252;2023-02-10T14:15:35;96709.09;;;11.18;nan
9261;BME280;4667;42.726;23.252;2023-02-10T14:18:19;96706.75;;;11.16;nan
9261;BME280;4667;42.726;23.252;2023-02-10T14:20:56;96705.34;;;11.41;nan
9261;BME280;4667;42.726;23.252;2023-02-10T14:23:40;96716.78;;;10.34;nan
9261;BME280;4667;42.726;23.252;2023-02-10T14:26:30;96723.78;;;10.35;nan
9261;BME280;4667;42.726;23.252;2023-02-10T14:28:58;96707.97;;;10.52;nan
9261;BME280;4667;42.726;23.252;2023-02-10T14:31:27;96710.56;;;9.90;nan
9261;BME280;4667;42.726;23.252;2023-02-10T14:33:56;96713.34;;;10.21;nan
9261;BME280;4667;42.726;23.252;2023-02-10T14:36:23;96705.34;;;9.41;nan
9261;BME280;4667;42.726;23.252;2023-02-10T14:38:52;96707.13;;;9.77;nan
9261;BME280;4667;42.726;23.252;2023-02-10T14:41:20;96701.94;;;9.72;nan
9261;BME280;4667;42.726;23.252;2023-02-10T14:43:50;96708.16;;;9.45;nan
9261;BME280;4667;42.726;23.252;2023-02-10T14:46:20;96698.19;;;9.21;nan
9261;BME280;4667;42.726;23.252;2023-02-10T14:48:48;96701.09;;;9.28;nan
9261;BME280;4667;42.726;23.252;2023-02-10T14:51:20;96702.00;;;9.20;nan
9261;BME280;4667;42.726;23.252;2023-02-10T14:53:48;96704.06;;;9.11;nan
9261;BME280;4667;42.726;23.252;2023-02-10T14:56:28;96706.88;;;9.14;nan
9261;BME280;4667;42.726;23.252;2023-02-10T14:58:57;96701.16;;;8.91;nan
9261;BME280;4667;42.726;23.252;2023-02-10T15:01:28;96712.31;;;8.90;nan
9261;BME280;4667;42.726;23.252;2023-02-10T15:03:56;96700.28;;;8.51;nan
9261;BME280;4667;42.726;23.252;2023-02-10T15:06:25;96710.44;;;8.09;nan
9261;BME280;4667;42.726;23.252;2023-02-10T15:08:57;96715.78;;;7.64;nan
9261;BME280;4667;42.726;23.252;2023-02-10T15:11:28;96714.44;;;6.87;nan
9261;BME280;4667;42.726;23.252;2023-02-10T15:14:18;96725.25;;;7.08;nan
9261;BME280;4667;42.726;23.252;2023-02-10T15:16:46;96719.00;;;6.66;nan
9261;BME280;4667;42.726;23.252;2023-02-10T15:19:17;96725.00;;;6.33;nan
9261;BME280;4667;42.726;23.252;2023-02-10T15:21:46;96722.44;;;5.90;nan
9261;BME280;4667;42.726;23.252;2023-02-10T15:24:26;96723.84;;;5.79;nan
9261;BME280;4667;42.726;23.252;2023-02-10T15:26:54;96730.03;;;5.88;nan
9261;BME280;4667;42.726;23.252;2023-02-10T15:29:22;96724.66;;;5.71;nan
9261;BME280;4667;42.726;23.252;2023-02-10T15:31:55;96722.78;;;5.63;nan
9261;BME280;4667;42.726;23.252;2023-02-10T15:34:24;96725.78;;;5.53;nan
9261;BME280;4667;42.726;23.252;2023-02-10T15:37:17;96737.94;;;5.33;nan
9261;BME280;4667;42.726;23.252;2023-02-10T15:39:54;96727.38;;;5.28;nan
9261;BME280;4667;42.726;23.252;2023-02-10T15:42:25;96743.00;;;5.17;nan
9261;BME280;4667;42.726;23.252;2023-02-10T15:45:03;96742.66;;;5.02;nan
9261;BME280;4667;42.726;23.252;2023-02-10T15:47:42;96735.25;;;4.99;nan
9261;BME280;4667;42.726;23.252;2023-02-10T15:50:11;96745.00;;;4.94;nan
9261;BME280;4667;42.726;23.252;2023-02-10T15:52:43;96745.63;;;4.83;nan
9261;BME280;4667;42.726;23.252;2023-02-10T15:55:16;96746.06;;;4.68;nan
9261;BME280;4667;42.726;23.252;2023-02-10T15:57:44;96747.69;;;4.38;nan
9261;BME280;4667;42.726;23.252;2023-02-10T16:00:18;96747.81;;;4.33;nan
9261;BME280;4667;42.726;23.252;2023-02-10T16:02:45;96749.78;;;4.19;nan
9261;BME280;4667;42.726;23.252;2023-02-10T16:05:12;96750.88;;;4.09;nan
9261;BME280;4667;42.726;23.252;2023-02-10T16:07:40;96755.59;;;4.12;nan
9261;BME280;4667;42.726;23.252;2023-02-10T16:10:13;96751.78;;;4.04;nan
9261;BME280;4667;42.726;23.252;2023-02-10T16:12:41;96759.25;;;3.85;nan
9261;BME280;4667;42.726;23.252;2023-02-10T16:15:14;96761.06;;;3.76;nan
9261;BME280;4667;42.726;23.252;2023-02-10T16:17:45;96761.31;;;3.66;nan
9261;BME280;4667;42.726;23.252;2023-02-10T16:20:20;96760.34;;;3.62;nan
9261;BME280;4667;42.726;23.252;2023-02-10T16:22:48;96764.13;;;3.61;nan
9261;BME280;4667;42.726;23.252;2023-02-10T16:25:16;96767.03;;;3.51;nan
9261;BME280;4667;42.726;23.252;2023-02-10T16:27:44;96766.28;;;3.37;nan
9261;BME280;4667;42.726;23.252;2023-02-10T16:30:20;96781.38;;;3.33;nan
9261;BME280;4667;42.726;23.252;2023-02-10T16:32:48;96778.72;;;3.19;nan
9261;BME280;4667;42.726;23.252;2023-02-10T16:35:16;96786.34;;;3.25;nan
9261;BME280;4667;42.726;23.252;2023-02-10T16:37:55;96785.19;;;3.04;nan
9261;BME280;4667;42.726;23.252;2023-02-10T16:40:27;96787.22;;;2.85;nan
9261;BME280;4667;42.726;23.252;2023-02-10T16:42:54;96789.88;;;2.71;nan
9261;BME280;4667;42.726;23.252;2023-02-10T16:45:24;96789.50;;;2.78;nan
9261;BME280;4667;42.726;23.252;2023-02-10T16:47:52;96789.31;;;2.61;nan
9261;BME280;4667;42.726;23.252;2023-02-10T16:50:23;96790.97;;;2.57;nan
9261;BME280;4667;42.726;23.252;2023-02-10T16:52:51;96789.47;;;2.51;nan
9261;BME280;4667;42.726;23.252;2023-02-10T16:55:17;96798.72;;;2.72;nan
9261;BME280;4667;42.726;23.252;2023-02-10T16:57:45;96804.47;;;2.79;nan
9261;BME280;4667;42.726;23.252;2023-02-10T17:00:14;96807.72;;;2.76;nan
9261;BME280;4667;42.726;23.252;2023-02-10T17:03:17;96803.09;;;2.68;nan
9261;BME280;4667;42.726;23.252;2023-02-10T17:05:56;96813.06;;;2.49;nan
9261;BME280;4667;42.726;23.252;2023-02-10T17:08:26;96812.16;;;2.26;nan
9261;BME280;4667;42.726;23.252;2023-02-10T17:10:56;96804.28;;;2.16;nan
9261;BME280;4667;42.726;23.252;2023-02-10T17:13:29;96810.91;;;2.04;nan
9261;BME280;4667;42.726;23.252;2023-02-10T17:15:57;96809.44;;;1.61;nan
9261;BME280;4667;42.726;23.252;2023-02-10T17:18:27;96811.19;;;1.71;nan
9261;BME280;4667;42.726;23.252;2023-02-10T17:20:55;96822.41;;;1.54;nan
9261;BME280;4667;42.726;23.252;2023-02-10T17:23:27;96823.75;;;1.70;nan
9261;BME280;4667;42.726;23.252;2023-02-10T17:25:58;96824.66;;;1.79;nan
9261;BME280;4667;42.726;23.252;2023-02-10T17:28:28;96827.22;;;1.71;nan
9261;BME280;4667;42.726;23.252;2023-02-10T17:30:58;96830.09;;;1.55;nan
9261;BME280;4667;42.726;23.252;2023-02-10T17:33:27;96835.88;;;1.62;nan
9261;BME280;4667;42.726;23.252;2023-02-10T17:35:57;96831.75;;;1.70;nan
9261;BME280;4667;42.726;23.252;2023-02-10T17:38:26;96828.13;;;1.80;nan
9261;BME280;4667;42.726;23.252;2023-02-10T17:41:11;96830.00;;;1.79;nan
9261;BME280;4667;42.726;23.252;2023-02-10T17:43:38;96843.06;;;1.81;nan
9261;BME280;4667;42.726;23.252;2023-02-10T17:46:05;96836.47;;;1.92;nan
9261;BME280;4667;42.726;23.252;2023-02-10T17:48:34;96836.44;;;1.78;nan
9261;BME280;4667;42.726;23.252;2023-02-10T17:51:04;96837.91;;;1.71;nan
9261;BME280;4667;42.726;23.252;2023-02-10T17:53:32;96843.31;;;1.66;nan
9261;BME280;4667;42.726;23.252;2023-02-10T17:56:00;96848.31;;;1.53;nan
9261;BME280;4667;42.726;23.252;2023-02-10T17:58:30;96845.31;;;1.74;nan
9261;BME280;4667;42.726;23.252;2023-02-10T18:00:59;96853.63;;;1.53;nan
9261;BME280;4667;42.726;23.252;2023-02-10T18:03:26;96849.19;;;1.49;nan
9261;BME280;4667;42.726;23.252;2023-02-10T18:05:57;96858.03;;;1.44;nan
9261;BME280;4667;42.726;23.252;2023-02-10T18:08:25;96858.75;;;1.50;nan
9261;BME280;4667;42.726;23.252;2023-02-10T18:10:55;96857.09;;;1.35;nan
9261;BME280;4667;42.726;23.252;2023-02-10T18:13:26;96855.78;;;1.33;nan
9261;BME280;4667;42.726;23.252;2023-02-10T18:15:55;96855.75;;;1.14;nan
9261;BME280;4667;42.726;23.252;2023-02-10T18:18:22;96852.97;;;0.81;nan
9261;BME280;4667;42.726;23.252;2023-02-10T18:20:50;96849.03;;;0.98;nan
9261;BME280;4667;42.726;23.252;2023-02-10T18:23:21;96853.09;;;0.90;nan
9261;BME280;4667;42.726;23.252;2023-02-10T18:25:51;96860.09;;;1.10;nan
9261;BME280;4667;42.726;23.252;2023-02-10T18:28:26;96867.38;;;0.80;nan
9261;BME280;4667;42.726;23.252;2023-02-10T18:31:03;96856.13;;;0.60;nan
9261;BME280;4667;42.726;23.252;2023-02-10T18:33:35;96868.34;;;0.37;nan
9261;BME280;4667;42.726;23.252;2023-02-10T18:36:06;96861.88;;;0.43;nan
9261;BME280;4667;42.726;23.252;2023-02-10T18:38:34;96874.25;;;0.34;nan
9261;BME280;4667;42.726;23.252;2023-02-10T18:41:04;96877.28;;;0.22;nan
9261;BME280;4667;42.726;23.252;2023-02-10T18:43:31;96876.00;;;0.44;nan
9261;BME280;4667;42.726;23.252;2023-02-10T18:46:03;96886.41;;;0.45;nan
9261;BME280;4667;42.726;23.252;2023-02-10T18:48:33;96874.66;;;0.46;nan
9261;BME280;4667;42.726;23.252;2023-02-10T18:51:25;96880.75;;;0.52;nan
9261;BME280;4667;42.726;23.252;2023-02-10T18:53:57;96880.31;;;0.39;nan
9261;BME280;4667;42.726;23.252;2023-02-10T18:56:26;96875.50;;;0.42;nan
9261;BME280;4667;42.726;23.252;2023-02-10T18:58:58;96883.09;;;0.29;nan
9261;BME280;4667;42.726;23.252;2023-02-10T19:01:25;96892.31;;;0.37;nan
9261;BME280;4667;42.726;23.252;2023-02-10T19:03:52;96889.13;;;0.40;nan
9261;BME280;4667;42.726;23.252;2023-02-10T19:06:20;96894.81;;;0.28;nan
9261;BME280;4667;42.726;23.252;2023-02-10T19:08:50;96897.47;;;0.28;nan
9261;BME280;4667;42.726;23.252;2023-02-10T19:11:23;96903.84;;;0.32;nan
9261;BME280;4667;42.726;23.252;2023-02-10T19:13:56;96896.16;;;0.26;nan
9261;BME280;4667;42.726;23.252;2023-02-10T19:16:24;96897.75;;;0.27;nan
9261;BME280;4667;42.726;23.252;2023-02-10T19:18:58;96900.41;;;0.27;nan
9261;BME280;4667;42.726;23.252;2023-02-10T19:21:31;96898.25;;;0.00;nan
9261;BME280;4667;42.726;23.252;2023-02-10T19:23:59;96900.84;;;0.10;nan
9261;BME280;4667;42.726;23.252;2023-02-10T19:26:45;96903.75;;;0.09;nan
9261;BME280;4667;42.726;23.252;2023-02-10T19:29:14;96904.09;;;0.02;nan
9261;BME280;4667;42.726;23.252;2023-02-10T19:32:05;96912.47;;;-0.15;nan
9261;BME280;4667;42.726;23.252;2023-02-10T19:34:38;96907.94;;;-0.14;nan
9261;BME280;4667;42.726;23.252;2023-02-10T19:37:07;96911.69;;;-0.20;nan
9261;BME280;4667;42.726;23.252;2023-02-10T19:39:38;96908.19;;;-0.16;nan
9261;BME280;4667;42.726;23.252;2023-02-10T19:42:10;96912.06;;;0.02;nan
9261;BME280;4667;42.726;23.252;2023-02-10T19:44:39;96916.44;;;-0.12;nan
9261;BME280;4667;42.726;23.252;2023-02-10T19:47:09;96917.75;;;-0.10;nan
9261;BME280;4667;42.726;23.252;2023-02-10T19:49:39;96921.44;;;-0.06;nan
9261;BME280;4667;42.726;23.252;2023-02-10T19:52:06;96914.78;;;-0.03;nan
9261;BME280;4667;42.726;23.252;2023-02-10T19:54:33;96922.53;;;-0.07;nan
9261;BME280;4667;42.726;23.252;2023-02-10T19:56:59;96909.53;;;-0.13;nan
9261;BME280;4667;42.726;23.252;2023-02-10T19:59:28;96925.13;;;0.04;nan
9261;BME280;4667;42.726;23.252;2023-02-10T20:01:55;96916.41;;;-0.07;nan
9261;BME280;4667;42.726;23.252;2023-02-10T20:04:22;96921.00;;;-0.18;nan
9261;BME280;4667;42.726;23.252;2023-02-10T20:06:49;96923.78;;;-0.38;nan
9261;BME280;4667;42.726;23.252;2023-02-10T20:09:17;96917.69;;;-0.44;nan
9261;BME280;4667;42.726;23.252;2023-02-10T20:11:44;96914.22;;;-0.39;nan
9261;BME280;4667;42.726;23.252;2023-02-10T20:14:11;96922.38;;;-0.74;nan
9261;BME280;4667;42.726;23.252;2023-02-10T20:16:41;96919.16;;;-0.66;nan
9261;BME280;4667;42.726;23.252;2023-02-10T20:19:10;96917.56;;;-0.67;nan
9261;BME280;4667;42.726;23.252;2023-02-10T20:21:38;96925.59;;;-0.83;nan
9261;BME280;4667;42.726;23.252;2023-02-10T20:24:09;96930.91;;;-0.83;nan
9261;BME280;4667;42.726;23.252;2023-02-10T20:26:36;96930.59;;;-0.71;nan
9261;BME280;4667;42.726;23.252;2023-02-10T20:29:03;96927.41;;;-0.68;nan
9261;BME280;4667;42.726;23.252;2023-02-10T20:31:30;96933.81;;;-0.74;nan
9261;BME280;4667;42.726;23.252;2023-02-10T20:33:59;96925.88;;;-0.84;nan
9261;BME280;4667;42.726;23.252;2023-02-10T20:36:26;96932.31;;;-1.05;nan
9261;BME280;4667;42.726;23.252;2023-02-10T20:38:53;96930.69;;;-1.01;nan
9261;BME280;4667;42.726;23.252;2023-02-10T20:41:27;96932.84;;;-0.98;nan
9261;BME280;4667;42.726;23.252;2023-02-10T20:43:55;96935.22;;;-0.97;nan
9261;BME280;4667;42.726;23.252;2023-02-10T20:46:22;96938.91;;;-0.88;nan
9261;BME280;4667;42.726;23.252;2023-02-10T20:48:50;96929.94;;;-1.12;nan
9261;BME280;4667;42.726;23.252;2023-02-10T20:51:21;96933.44;;;-1.21;nan
9261;BME280;4667;42.726;23.252;2023-02-10T20:53:48;96938.44;;;-1.05;nan
9261;BME280;4667;42.726;23.252;2023-02-10T20:56:17;96935.25;;;-1.02;nan
9261;BME280;4667;42.726;23.252;2023-02-10T20:58:46;96933.13;;;-1.05;nan
9261;BME280;4667;42.726;23.252;2023-02-10T21:01:14;96918.25;;;-1.11;nan
9261;BME280;4667;42.726;23.252;2023-02-10T21:03:43;96929.94;;;-1.12;nan
9261;BME280;4667;42.726;23.252;2023-02-10T21:06:14;96920.88;;;-0.96;nan
9261;BME280;4667;42.726;23.252;2023-02-10T21:08:45;96921.75;;;-1.20;nan
9261;BME280;4667;42.726;23.252;2023-02-10T21:11:17;96919.03;;;-1.10;nan
9261;BME280;4667;42.726;23.252;2023-02-10T21:13:45;96931.56;;;-1.16;nan
9261;BME280;4667;42.726;23.252;2023-02-10T21:16:14;96924.41;;;-1.36;nan
9261;BME280;4667;42.726;23.252;2023-02-10T21:18:45;96919.16;;;-1.61;nan
9261;BME280;4667;42.726;23.252;2023-02-10T21:21:14;96926.59;;;-1.73;nan
9261;BME280;4667;42.726;23.252;2023-02-10T21:23:43;96928.47;;;-1.74;nan
9261;BME280;4667;42.726;23.252;2023-02-10T21:26:12;96921.53;;;-1.49;nan
9261;BME280;4667;42.726;23.252;2023-02-10T21:28:41;96922.84;;;-1.42;nan
9261;BME280;4667;42.726;23.252;2023-02-10T21:31:25;96914.63;;;-1.45;nan
9261;BME280;4667;42.726;23.252;2023-02-10T21:33:56;96914.63;;;-1.55;nan